Accueil
METAR-TAF:

METAR-TAF

Aéroports :

Trévise, Italie

Aéroport de Trévise

latitude: 45-39N, longitude: 012-11E, altitude: 18 m

Observation

Le bulletin a été fait il y a 31 minutes, à 09:50 UTC
Vent 10 kt de est/nord-est
Température 10°C
Humidité 50%
Pression 1011 hPa
Visibilité 10 km ou plus
pas de nuages en-dessous de 1500 mètres et pas de cumulonimbus.

METAR: LIPH 240950Z 07010KT CAVOK 10/00 Q1011

Heure: 11:21 (10:21 UTC)

Prévision

Le bulletin a été fait il y a 5 heures et 21 minutes, à 05:00 UTC
Prévision valable du 24 à 06 UTC au 25 à 06 UTC
Vent 15 kt de est/nord-est
Visibilité: 8000 m
Nuages fragmentés à une hauteur de 2000 ft

TAF: LIPH 240500Z 2406/2506 06015KT 8000 BKN020

Observations et prévisions météorologiques de plus de 4000 aéroports (messages METAR et TAF).

Les stations disponibles sont représentées par des disques jaunes et rouges sur la carte.

Passer la souris dessus pour voir le nom de la station.

Cliquer dessus pour voir les observations et prévisions météorologiques.

Pour changer de carte: cliquez sur les boutons verts avec une croix noire pour zoomer, sur le bouton vert avec un tiret pour effectuer un zoom arrière, ou sur les flèches vertes pour les cartes adjacentes.


METAR-TAF: